createdAt,value
2023-03-04T00:05:14.879Z,20.6
2023-03-04T00:11:07.453Z,20.6
2023-03-04T00:16:47.574Z,20.6
2023-03-04T00:22:40.351Z,20.6
2023-03-04T00:28:18.325Z,20.6
2023-03-04T00:34:10.649Z,20.6
2023-03-04T00:40:03.882Z,20.6
2023-03-04T00:45:41.224Z,20.6
2023-03-04T00:51:03.003Z,20.6
2023-03-04T00:56:54.594Z,20.6
2023-03-04T01:02:32.234Z,20.6
2023-03-04T01:07:54.065Z,20.6
2023-03-04T01:13:31.952Z,20.6
2023-03-04T01:19:09.450Z,20.6
2023-03-04T01:24:46.027Z,20.6
2023-03-04T01:30:22.936Z,20.6
2023-03-04T01:36:00.754Z,20.6
2023-03-04T01:41:22.327Z,20.6
2023-03-04T01:46:47.255Z,20.6
2023-03-04T01:52:09.961Z,20.6
2023-03-04T01:57:31.211Z,20.6
2023-03-04T02:02:53.250Z,20.6
2023-03-04T02:08:15.561Z,20.6
2023-03-04T02:13:53.165Z,20.6
2023-03-04T02:19:00.288Z,20.6
2023-03-04T02:24:22.295Z,20.5
2023-03-04T02:29:59.179Z,20.5
2023-03-04T02:35:36.522Z,20.5
2023-03-04T02:41:14.296Z,20.6
2023-03-04T02:46:50.905Z,20.5
2023-03-04T02:52:27.272Z,20.5
2023-03-04T02:58:04.966Z,20.5
2023-03-04T03:03:27.019Z,20.5
2023-03-04T03:09:04.906Z,20.5
2023-03-04T03:14:42.780Z,20.5
2023-03-04T03:20:05.510Z,20.5
2023-03-04T03:25:43.171Z,20.5
2023-03-04T03:31:20.354Z,20.5
2023-03-04T03:36:57.949Z,20.5
2023-03-04T03:42:35.377Z,20.4
2023-03-04T03:47:57.701Z,20.5
2023-03-04T03:53:18.851Z,20.4
2023-03-04T03:58:57.556Z,20.4
2023-03-04T04:04:35.801Z,20.4
2023-03-04T04:10:12.883Z,20.4
2023-03-04T04:15:50.272Z,20.4
2023-03-04T04:21:15.647Z,20.4
2023-03-04T04:26:53.155Z,20.4
2023-03-04T04:32:30.389Z,20.4
2023-03-04T04:37:36.548Z,20.4
2023-03-04T04:43:14.203Z,20.4
2023-03-04T04:48:36.662Z,20.4
2023-03-04T04:54:30.250Z,20.4
2023-03-04T05:00:06.849Z,20.4
2023-03-04T05:05:44.513Z,20.4
2023-03-04T05:11:21.913Z,20.4
2023-03-04T05:17:14.432Z,20.4
2023-03-04T05:22:51.575Z,20.4
2023-03-04T05:28:28.257Z,20.4
2023-03-04T05:34:05.404Z,20.4
2023-03-04T05:39:44.089Z,20.4
2023-03-04T05:45:20.668Z,20.4
2023-03-04T05:51:13.225Z,20.4
2023-03-04T05:57:06.220Z,20.4
2023-03-04T06:02:58.978Z,20.4
2023-03-04T06:08:36.283Z,20.4
2023-03-04T06:14:28.908Z,20.4
2023-03-04T06:20:21.663Z,20.3
2023-03-04T06:26:13.540Z,20.4
2023-03-04T06:31:53.305Z,20.3
2023-03-04T06:37:46.602Z,20.3
2023-03-04T06:43:39.799Z,20.3
2023-03-04T06:49:17.860Z,20.3
2023-03-04T06:55:10.715Z,20.3
2023-03-04T07:01:02.435Z,20.3
2023-03-04T07:06:54.650Z,20.3
2023-03-04T07:12:47.052Z,20.3
2023-03-04T07:18:39.849Z,20.3
2023-03-04T07:24:33.362Z,20.3
2023-03-04T07:30:25.516Z,20.3
2023-03-04T07:36:17.889Z,20.3
2023-03-04T07:42:10.773Z,20.3
2023-03-04T07:48:03.957Z,20.3
2023-03-04T07:53:59.423Z,20.3
2023-03-04T07:59:51.434Z,20.3
2023-03-04T08:05:44.141Z,20.3
2023-03-04T08:11:36.509Z,20.2
2023-03-04T08:17:29.829Z,20.2
2023-03-04T08:23:07.884Z,20.2
2023-03-04T08:28:45.517Z,20.2
2023-03-04T08:34:40.848Z,20.2
2023-03-04T08:40:21.230Z,20.2
2023-03-04T08:46:14.307Z,20.2
2023-03-04T08:52:07.741Z,20.2
2023-03-04T08:58:00.143Z,20.2
2023-03-04T09:03:52.759Z,20.2
2023-03-04T09:09:45.555Z,20.2
2023-03-04T09:15:47.774Z,20.2
2023-03-04T09:21:41.244Z,20.1
2023-03-04T09:27:34.359Z,20.2
2023-03-04T09:33:27.330Z,20.1
2023-03-04T09:39:19.478Z,20.2
2023-03-04T09:44:57.246Z,20.1
2023-03-04T09:50:52.257Z,20.1
2023-03-04T09:56:49.206Z,20.1
2023-03-04T10:02:43.040Z,20.1
2023-03-04T10:08:35.823Z,20.1
2023-03-04T10:14:28.057Z,20.1
2023-03-04T10:20:21.861Z,20.1
2023-03-04T10:26:17.454Z,20.1
2023-03-04T10:31:55.066Z,20.1
2023-03-04T10:37:47.635Z,20.1
2023-03-04T10:43:40.807Z,20.1
2023-03-04T10:49:33.964Z,20.1
2023-03-04T10:55:26.025Z,20.1
2023-03-04T11:01:05.696Z,20.1
2023-03-04T11:06:58.558Z,20.1
2023-03-04T11:13:01.192Z,20.1
2023-03-04T11:18:52.837Z,20.1
2023-03-04T11:25:01.349Z,20.1
2023-03-04T11:30:54.025Z,20
2023-03-04T11:36:48.137Z,20.1
2023-03-04T11:42:41.428Z,20
2023-03-04T11:48:51.176Z,20
2023-03-04T11:54:44.132Z,20
2023-03-04T12:00:37.421Z,19.9
2023-03-04T12:06:31.615Z,19.9
2023-03-04T12:12:09.353Z,19.9
2023-03-04T12:18:04.549Z,19.9
2023-03-04T12:23:56.881Z,19.9
2023-03-04T12:29:35.611Z,19.9
2023-03-04T12:35:32.660Z,19.9
2023-03-04T12:41:10.956Z,19.9
2023-03-04T12:46:47.460Z,19.9
2023-03-04T12:52:42.019Z,19.9
2023-03-04T12:58:35.501Z,19.8
2023-03-04T13:04:13.919Z,19.9
2023-03-04T13:09:51.203Z,19.9
2023-03-04T13:15:47.669Z,19.8
2023-03-04T13:21:26.402Z,19.8
2023-03-04T13:27:20.787Z,19.8
2023-03-04T13:33:16.988Z,19.8
2023-03-04T13:39:11.939Z,19.8
2023-03-04T13:44:49.313Z,19.8
2023-03-04T13:50:43.436Z,19.8
2023-03-04T13:56:52.343Z,19.8
2023-03-04T14:02:45.598Z,19.8
2023-03-04T14:08:40.055Z,19.8
2023-03-04T14:14:17.395Z,19.8
2023-03-04T14:20:10.634Z,19.8
2023-03-04T14:26:03.905Z,19.8
2023-03-04T14:31:50.813Z,19.8
2023-03-04T14:37:43.855Z,19.8
2023-03-04T14:43:36.227Z,19.8
2023-03-04T14:49:41.084Z,19.7
2023-03-04T14:55:33.388Z,19.7
2023-03-04T15:01:25.251Z,19.7
2023-03-04T15:07:19.357Z,19.7
2023-03-04T15:13:12.102Z,19.7
2023-03-04T15:19:05.585Z,19.7
2023-03-04T15:24:42.165Z,19.7
2023-03-04T15:30:36.923Z,19.7
2023-03-04T15:36:29.794Z,19.7
2023-03-04T15:42:21.257Z,19.7
2023-03-04T15:48:01.653Z,19.7
2023-03-04T15:53:40.475Z,19.7
2023-03-04T15:59:32.749Z,19.6
2023-03-04T16:05:25.384Z,19.6
2023-03-04T16:11:17.796Z,19.7
2023-03-04T16:17:10.571Z,19.6
2023-03-04T16:23:02.925Z,19.6
2023-03-04T16:28:55.407Z,19.6
2023-03-04T16:34:35.160Z,19.6
2023-03-04T16:40:27.878Z,19.6
2023-03-04T16:46:05.399Z,19.6
2023-03-04T16:51:59.594Z,19.6
2023-03-04T16:57:52.570Z,19.6
2023-03-04T17:03:45.669Z,19.6
2023-03-04T17:09:40.539Z,19.6
2023-03-04T17:15:17.166Z,19.7
2023-03-04T17:20:54.476Z,20
2023-03-04T17:26:46.691Z,20.3
2023-03-04T17:32:24.187Z,20.5
2023-03-04T17:38:16.747Z,20.8
2023-03-04T17:43:53.552Z,20.8
2023-03-04T17:49:30.972Z,20.9
2023-03-04T17:55:22.557Z,21.1
2023-03-04T18:00:59.505Z,21.2
2023-03-04T18:06:52.234Z,21.3
2023-03-04T18:12:29.441Z,21.5
2023-03-04T18:18:21.582Z,21.6
2023-03-04T18:23:42.952Z,21.7
2023-03-04T18:29:20.117Z,21.8
2023-03-04T18:35:09.056Z,21.8
2023-03-04T18:40:46.406Z,21.7
2023-03-04T18:46:39.513Z,21.8
2023-03-04T18:52:32.238Z,21.9
2023-03-04T18:58:24.721Z,22.1
2023-03-04T19:04:17.581Z,22.2
2023-03-04T19:10:09.255Z,22.2
2023-03-04T19:21:09.690Z,22.6
2023-03-04T19:26:46.477Z,22.7
2023-03-04T19:32:39.727Z,22.8
2023-03-04T19:38:16.563Z,22.9
2023-03-04T19:43:22.384Z,23.1
2023-03-04T19:49:15.610Z,23.2
2023-03-04T19:54:52.712Z,23.3
2023-03-04T20:00:30.215Z,23.3
2023-03-04T20:06:08.001Z,23.4
2023-03-04T20:11:29.474Z,23.4
2023-03-04T20:16:46.906Z,23.5
2023-03-04T20:22:24.269Z,23.5
2023-03-04T20:27:46.517Z,23.5
2023-03-04T20:33:23.993Z,23.5
2023-03-04T20:39:04.283Z,23.5
2023-03-04T20:44:50.616Z,23.4
2023-03-04T20:50:42.566Z,23.3
2023-03-04T20:56:19.127Z,23.2
2023-03-04T21:01:10.088Z,23.1
2023-03-04T21:07:02.637Z,23
2023-03-04T21:12:56.086Z,22.9
2023-03-04T21:18:48.833Z,22.9
2023-03-04T21:24:45.190Z,22.8
2023-03-04T21:30:37.886Z,22.6
2023-03-04T21:36:29.764Z,22.6
2023-03-04T21:42:06.624Z,22.6
2023-03-04T21:47:43.196Z,22.5
2023-03-04T21:53:38.190Z,22.4
2023-03-04T21:58:59.293Z,22.4
2023-03-04T22:04:38.203Z,22.3
2023-03-04T22:10:30.300Z,22.3
2023-03-04T22:15:36.977Z,22.3
2023-03-04T22:21:26.081Z,22.1
2023-03-04T22:26:47.679Z,22.1
2023-03-04T22:32:25.698Z,22.1
2023-03-04T22:37:33.225Z,22
2023-03-04T22:42:54.333Z,21.9
2023-03-04T22:48:16.131Z,21.9
2023-03-04T22:53:53.621Z,21.9
2023-03-04T22:59:31.232Z,21.9
2023-03-04T23:05:23.602Z,21.9
2023-03-04T23:11:15.757Z,21.8
2023-03-04T23:17:08.564Z,21.7
2023-03-04T23:23:00.942Z,21.6
2023-03-04T23:28:38.782Z,21.5
2023-03-04T23:34:32.314Z,21.5
2023-03-04T23:40:24.434Z,21.4
2023-03-04T23:46:17.353Z,21.3
2023-03-04T23:51:54.852Z,21.3
2023-03-04T23:57:47.217Z,21.2
